createdAt,value
2022-11-15T06:14:28.168Z,93.10
2022-11-15T06:17:13.340Z,93.30
2022-11-15T06:19:58.748Z,94.20
2022-11-15T06:22:44.197Z,94.80
2022-11-15T06:25:30.694Z,95.50
2022-11-15T06:28:16.212Z,96.20
2022-11-15T06:31:06.693Z,96.60
2022-11-15T06:33:51.931Z,96.90
2022-11-15T06:36:37.554Z,97.10
2022-11-15T06:39:22.765Z,97.20
2022-11-15T06:42:10.052Z,97.00
2022-11-15T06:44:55.529Z,97.40
2022-11-15T06:47:48.102Z,97.50
2022-11-15T06:50:33.693Z,97.80
2022-11-15T06:53:19.315Z,98.10
2022-11-15T06:56:06.887Z,98.10
2022-11-15T06:58:52.023Z,98.30
2022-11-15T07:01:37.430Z,98.10
2022-11-15T07:04:23.019Z,97.80
2022-11-15T07:07:08.345Z,98.20
2022-11-15T07:09:53.660Z,98.30
2022-11-15T07:12:38.960Z,98.10
2022-11-15T07:15:26.659Z,98.20
2022-11-15T07:18:12.291Z,97.80
2022-11-15T07:21:02.138Z,97.90
2022-11-15T07:23:47.474Z,98.30
2022-11-15T07:26:32.874Z,98.20
2022-11-15T07:29:18.252Z,98.30
2022-11-15T07:32:03.844Z,98.20
2022-11-15T07:34:49.489Z,98.00
2022-11-15T07:37:34.793Z,97.80
2022-11-15T07:40:20.365Z,97.40
2022-11-15T07:43:09.234Z,97.40
2022-11-15T07:45:59.138Z,97.90
2022-11-15T07:48:45.765Z,98.10
2022-11-15T07:51:31.160Z,98.20
2022-11-15T07:54:16.444Z,97.90
2022-11-15T07:57:06.900Z,97.90
2022-11-15T07:59:53.044Z,97.40
2022-11-15T08:02:38.216Z,97.40
2022-11-15T08:05:23.547Z,97.50
2022-11-15T08:08:10.924Z,97.70
2022-11-15T08:10:58.840Z,97.30
2022-11-15T08:13:43.988Z,97.50
2022-11-15T08:16:29.464Z,97.10
2022-11-15T08:19:15.017Z,97.00
2022-11-15T08:22:00.278Z,97.20
2022-11-15T08:24:45.682Z,97.40
2022-11-15T08:27:31.269Z,97.10
2022-11-15T08:30:16.995Z,96.60
2022-11-15T08:33:02.248Z,96.30
2022-11-15T08:35:47.675Z,95.90
2022-11-15T08:38:33.662Z,96.00
2022-11-15T08:41:36.744Z,95.90
2022-11-15T08:44:22.329Z,95.80
2022-11-15T08:47:08.385Z,95.40
2022-11-15T08:49:54.045Z,95.00
2022-11-15T08:52:39.340Z,94.90
2022-11-15T08:55:25.110Z,94.40
2022-11-15T08:58:10.254Z,94.50
2022-11-15T09:00:56.252Z,94.00
2022-11-15T09:03:42.335Z,93.90
2022-11-15T09:06:28.175Z,93.90
2022-11-15T09:09:13.251Z,93.50
2022-11-15T09:12:02.430Z,93.70
2022-11-15T09:14:47.672Z,93.50
2022-11-15T09:17:33.093Z,93.00
2022-11-15T09:20:18.708Z,92.70
2022-11-15T09:23:05.793Z,92.20
2022-11-15T09:25:51.632Z,92.00
2022-11-15T09:28:37.837Z,92.30
2022-11-15T09:31:23.305Z,92.40
2022-11-15T09:34:08.568Z,93.00
2022-11-15T09:36:53.878Z,92.60
2022-11-15T09:39:39.393Z,92.80
2022-11-15T09:42:32.379Z,92.20
2022-11-15T09:45:33.805Z,92.60
2022-11-15T09:48:24.722Z,91.80
2022-11-15T09:51:50.956Z,91.80
2022-11-15T09:54:52.251Z,91.90
2022-11-15T09:57:42.592Z,92.80
2022-11-15T10:00:46.327Z,92.60
2022-11-15T10:03:21.067Z,92.40
2022-11-15T10:05:49.311Z,92.90
2022-11-15T10:08:31.691Z,93.00
2022-11-15T10:11:35.672Z,92.50
2022-11-15T10:13:51.097Z,92.30
2022-11-15T10:16:17.730Z,91.50
2022-11-15T10:19:04.725Z,91.50
2022-11-15T10:22:13.234Z,91.10
2022-11-15T10:24:43.815Z,92.10
2022-11-15T10:27:14.293Z,91.90
2022-11-15T10:29:49.679Z,91.80
2022-11-15T10:32:21.944Z,92.20
2022-11-15T10:34:50.510Z,92.10
2022-11-15T10:37:31.891Z,92.00
2022-11-15T10:40:25.025Z,91.90
2022-11-15T10:43:09.831Z,92.00
2022-11-15T10:45:37.852Z,92.30
2022-11-15T10:48:13.660Z,92.80
2022-11-15T10:50:45.599Z,92.90
2022-11-15T10:53:21.352Z,92.20
2022-11-15T10:55:50.480Z,91.90
2022-11-15T10:58:44.273Z,91.70
2022-11-15T11:01:13.826Z,91.70
2022-11-15T11:03:42.710Z,91.50
2022-11-15T11:06:12.688Z,91.30
2022-11-15T11:08:40.290Z,91.90
2022-11-15T11:11:08.725Z,92.20
2022-11-15T11:13:38.051Z,91.80
2022-11-15T11:16:15.608Z,90.70
2022-11-15T11:18:53.498Z,91.00
2022-11-15T11:21:44.949Z,92.10
2022-11-15T11:24:30.983Z,92.20
2022-11-15T11:27:14.234Z,92.20
2022-11-15T11:30:18.628Z,92.40
2022-11-15T11:32:58.611Z,92.40
2022-11-15T11:35:44.080Z,92.80
2022-11-15T11:38:50.952Z,93.10
2022-11-15T11:41:55.569Z,92.10
2022-11-15T11:44:44.059Z,91.90
2022-11-15T11:47:25.400Z,92.50
2022-11-15T11:49:53.494Z,92.90
2022-11-15T11:52:31.696Z,93.10
2022-11-15T11:55:01.355Z,93.40
2022-11-15T11:57:48.294Z,93.10
2022-11-15T12:00:23.877Z,93.50
2022-11-15T12:03:27.541Z,93.20
2022-11-15T12:06:05.982Z,92.50
2022-11-15T12:08:52.985Z,91.90
2022-11-15T12:11:30.838Z,90.40
2022-11-15T12:14:01.161Z,90.70
2022-11-15T12:16:30.426Z,90.00
2022-11-15T12:19:03.858Z,87.10
2022-11-15T12:21:33.548Z,83.30
2022-11-15T12:24:06.207Z,79.80
2022-11-15T12:26:41.175Z,80.20
2022-11-15T12:29:21.414Z,80.60
2022-11-15T12:31:53.387Z,80.90
2022-11-15T12:34:23.108Z,81.10
2022-11-15T12:36:51.343Z,82.60
2022-11-15T12:39:18.870Z,83.10
2022-11-15T12:41:57.198Z,83.50
2022-11-15T12:44:33.031Z,84.70
2022-11-15T12:47:03.544Z,85.30
2022-11-15T12:49:30.151Z,86.30
2022-11-15T12:51:59.798Z,86.40
2022-11-15T12:54:28.100Z,86.40
2022-11-15T12:57:03.616Z,87.20
2022-11-15T12:59:59.410Z,87.50
2022-11-15T13:02:28.679Z,87.90
2022-11-15T13:05:16.782Z,87.70
2022-11-15T13:07:43.699Z,87.50
2022-11-15T13:10:13.489Z,87.70
2022-11-15T13:12:46.083Z,87.90
2022-11-15T13:15:12.701Z,88.00
2022-11-15T13:17:46.096Z,89.70
2022-11-15T13:20:15.200Z,89.50
2022-11-15T13:23:02.861Z,89.80
2022-11-15T13:25:48.841Z,89.60
2022-11-15T13:28:15.510Z,90.30
2022-11-15T13:30:50.726Z,89.90
2022-11-15T13:33:18.976Z,90.60
2022-11-15T13:35:53.559Z,90.20
2022-11-15T13:38:35.117Z,90.00
2022-11-15T13:41:18.593Z,91.10
2022-11-15T13:43:45.279Z,92.30
2022-11-15T13:46:15.109Z,92.60
2022-11-15T13:48:43.148Z,92.50
2022-11-15T13:51:25.832Z,90.30
2022-11-15T13:54:16.353Z,90.40
2022-11-15T13:56:48.080Z,92.10
2022-11-15T13:59:22.471Z,93.10
2022-11-15T14:01:50.857Z,93.60
2022-11-15T14:04:21.727Z,92.90
2022-11-15T14:06:51.852Z,92.50
2022-11-15T14:09:39.336Z,91.40
2022-11-15T14:12:30.048Z,93.30
2022-11-15T14:14:58.192Z,94.10
2022-11-15T14:17:30.551Z,94.00
2022-11-15T14:19:58.565Z,94.00
2022-11-15T14:22:27.007Z,92.90
2022-11-15T14:25:16.142Z,94.00
2022-11-15T14:27:45.220Z,93.60
2022-11-15T14:30:16.823Z,93.70
2022-11-15T14:32:49.234Z,94.00
2022-11-15T14:35:19.484Z,94.10
2022-11-15T14:37:46.996Z,94.90
2022-11-15T14:40:17.195Z,95.20
2022-11-15T14:42:45.953Z,95.20
2022-11-15T14:45:15.578Z,95.20
2022-11-15T14:47:43.219Z,95.30
2022-11-15T14:50:19.601Z,95.40
2022-11-15T14:52:47.124Z,95.30
2022-11-15T14:55:35.249Z,95.40
2022-11-15T14:58:07.935Z,95.70
2022-11-15T15:00:36.218Z,96.00
2022-11-15T15:03:04.004Z,96.30
2022-11-15T15:05:42.408Z,96.50
2022-11-15T15:08:10.173Z,96.40
2022-11-15T15:10:41.482Z,96.30
2022-11-15T15:13:22.206Z,96.40
2022-11-15T15:15:50.185Z,96.50
2022-11-15T15:18:17.768Z,96.60
2022-11-15T15:20:46.756Z,96.30
2022-11-15T15:23:19.095Z,96.40
2022-11-15T15:25:47.311Z,96.50
2022-11-15T15:28:14.081Z,96.60
2022-11-15T15:30:41.360Z,96.50
2022-11-15T15:33:08.021Z,96.70
2022-11-15T15:35:35.881Z,97.00
2022-11-15T15:38:02.692Z,96.90
2022-11-15T15:40:31.532Z,96.70
2022-11-15T15:42:58.398Z,97.20
2022-11-15T15:45:26.804Z,97.30
2022-11-15T15:47:54.104Z,97.20
2022-11-15T15:50:23.881Z,97.20
2022-11-15T15:52:55.970Z,97.30
2022-11-15T15:55:22.918Z,97.20
2022-11-15T15:57:50.289Z,97.00
2022-11-15T16:00:17.811Z,96.90
2022-11-15T16:02:44.928Z,97.30
2022-11-15T16:05:13.171Z,97.50
2022-11-15T16:07:41.012Z,97.20
2022-11-15T16:10:16.737Z,97.50
2022-11-15T16:12:43.697Z,97.50
2022-11-15T16:15:10.616Z,97.80
2022-11-15T16:17:43.039Z,97.80
2022-11-15T16:20:50.891Z,97.90
2022-11-15T16:23:20.513Z,98.00
2022-11-15T16:25:52.829Z,98.00
2022-11-15T16:28:29.609Z,98.10
2022-11-15T16:31:09.654Z,97.90
2022-11-15T16:33:37.512Z,97.50
2022-11-15T16:36:06.815Z,96.80
2022-11-15T16:38:34.088Z,96.50
2022-11-15T16:41:01.085Z,96.90
2022-11-15T16:43:28.170Z,97.10
2022-11-15T16:45:55.152Z,97.20
2022-11-15T16:48:27.394Z,97.10
2022-11-15T16:50:57.236Z,96.90
2022-11-15T16:53:24.807Z,96.50
2022-11-15T16:55:51.666Z,96.30
2022-11-15T16:58:18.359Z,96.50
2022-11-15T17:00:45.166Z,96.70
2022-11-15T17:03:12.034Z,96.80
2022-11-15T17:05:38.737Z,96.90
2022-11-15T17:08:06.401Z,97.00
2022-11-15T17:10:33.115Z,97.00
2022-11-15T17:12:59.770Z,97.30
2022-11-15T17:15:26.409Z,97.50
2022-11-15T17:17:54.415Z,97.70
2022-11-15T17:20:23.652Z,97.50
2022-11-15T17:22:50.370Z,97.40
2022-11-15T17:25:17.152Z,97.40
2022-11-15T17:27:43.864Z,98.00
2022-11-15T17:30:13.086Z,98.30
2022-11-15T17:32:39.813Z,98.30
2022-11-15T17:35:15.134Z,98.20
2022-11-15T17:37:42.786Z,98.30
2022-11-15T17:40:10.201Z,98.20
2022-11-15T17:42:37.060Z,98.00
2022-11-15T17:45:09.370Z,98.00
2022-11-15T17:47:37.160Z,98.10
2022-11-15T17:50:04.352Z,98.30
2022-11-15T17:52:31.124Z,98.30
2022-11-15T17:54:57.933Z,98.30
2022-11-15T17:57:24.577Z,98.30
2022-11-15T17:59:51.226Z,98.30
2022-11-15T18:02:18.175Z,98.20
2022-11-15T18:04:44.964Z,98.30
2022-11-15T18:07:13.755Z,98.30
2022-11-15T18:09:43.626Z,98.30
2022-11-15T18:12:11.597Z,98.30
2022-11-15T18:14:38.360Z,98.30
2022-11-15T18:17:05.028Z,98.30
2022-11-15T18:19:31.747Z,98.30
2022-11-15T18:22:01.676Z,98.30
2022-11-15T18:24:34.686Z,98.30
2022-11-15T18:27:03.030Z,98.30
2022-11-15T18:29:30.024Z,98.30
2022-11-15T18:31:57.360Z,98.30
2022-11-15T18:34:25.737Z,98.30
2022-11-15T18:36:53.529Z,98.30
2022-11-15T18:39:20.962Z,98.20
2022-11-15T18:41:48.580Z,98.30
2022-11-15T18:44:16.232Z,98.30
2022-11-15T18:46:44.933Z,98.30
2022-11-15T18:49:13.587Z,98.30
2022-11-15T18:51:41.962Z,98.30
2022-11-15T18:54:10.990Z,98.30
2022-11-15T18:56:38.194Z,98.20
2022-11-15T18:59:05.366Z,97.80
2022-11-15T19:01:37.650Z,97.90
2022-11-15T19:04:11.637Z,97.50
2022-11-15T19:06:43.119Z,98.20
2022-11-15T19:09:11.535Z,98.30
2022-11-15T19:11:39.970Z,98.20
2022-11-15T19:14:12.170Z,98.30
2022-11-15T19:16:54.569Z,98.30
2022-11-15T19:19:24.432Z,98.30
2022-11-15T19:21:52.371Z,98.30
2022-11-15T19:24:19.193Z,98.30
2022-11-15T19:26:46.885Z,98.30
2022-11-15T19:29:14.097Z,98.30
2022-11-15T19:31:41.648Z,98.30
2022-11-15T19:34:08.804Z,98.30
2022-11-15T19:36:40.352Z,98.30
2022-11-15T19:39:10.147Z,98.30
2022-11-15T19:41:38.541Z,98.30
2022-11-15T19:44:06.532Z,98.30
2022-11-15T19:46:33.508Z,98.20
2022-11-15T19:49:00.322Z,98.00
2022-11-15T19:51:30.220Z,97.80
2022-11-15T19:54:01.225Z,97.60
2022-11-15T19:56:27.954Z,97.60
2022-11-15T19:58:56.018Z,97.60
2022-11-15T20:01:28.177Z,97.50
2022-11-15T20:03:57.723Z,97.40
2022-11-15T20:06:30.143Z,97.10
2022-11-15T20:08:57.766Z,97.10
2022-11-15T20:11:25.844Z,97.30
2022-11-15T20:13:57.223Z,97.30
2022-11-15T20:16:24.634Z,97.30
2022-11-15T20:18:52.930Z,97.30
2022-11-15T20:21:20.264Z,97.20
2022-11-15T20:23:47.990Z,97.40
2022-11-15T20:26:15.795Z,97.50
2022-11-15T20:28:44.311Z,97.30
2022-11-15T20:31:11.873Z,97.30
2022-11-15T20:33:38.570Z,97.30
2022-11-15T20:36:11.440Z,97.20
2022-11-15T20:38:38.458Z,96.90
2022-11-15T20:41:05.641Z,96.50
2022-11-15T20:43:32.533Z,96.60
2022-11-15T20:45:59.232Z,96.70
2022-11-15T20:48:26.145Z,97.10
2022-11-15T20:51:08.964Z,97.20
2022-11-15T20:53:35.964Z,97.40
2022-11-15T20:56:07.534Z,97.30
2022-11-15T20:58:36.207Z,97.40
2022-11-15T21:01:07.965Z,97.30
2022-11-15T21:03:35.502Z,97.20
2022-11-15T21:06:02.536Z,97.20
2022-11-15T21:08:49.814Z,97.10
2022-11-15T21:11:35.030Z,97.00
2022-11-15T21:14:06.319Z,96.80
2022-11-15T21:16:35.660Z,97.00
2022-11-15T21:19:02.304Z,97.10
2022-11-15T21:21:29.406Z,97.00
2022-11-15T21:23:56.111Z,97.00
2022-11-15T21:26:22.910Z,97.10
2022-11-15T21:28:49.685Z,97.00
2022-11-15T21:31:16.468Z,96.90
2022-11-15T21:33:43.208Z,97.10
2022-11-15T21:36:09.951Z,97.20
2022-11-15T21:38:36.861Z,97.30
2022-11-15T21:41:04.255Z,97.40
2022-11-15T21:43:31.000Z,96.80
2022-11-15T21:46:02.881Z,96.90
2022-11-15T21:48:31.757Z,97.10
2022-11-15T21:51:00.801Z,96.70
2022-11-15T21:53:28.335Z,96.70
2022-11-15T21:55:55.193Z,96.70
2022-11-15T21:58:22.472Z,96.60
2022-11-15T22:01:08.782Z,96.80
2022-11-15T22:03:35.949Z,97.10
2022-11-15T22:06:02.821Z,97.40
2022-11-15T22:08:31.233Z,97.40
2022-11-15T22:10:58.539Z,97.30
2022-11-15T22:13:26.239Z,97.20
2022-11-15T22:15:56.577Z,97.50
2022-11-15T22:18:26.712Z,97.30
2022-11-15T22:21:01.599Z,97.30
2022-11-15T22:23:30.667Z,97.40
2022-11-15T22:25:57.588Z,97.30
2022-11-15T22:28:24.510Z,97.30
2022-11-15T22:30:53.308Z,97.10
2022-11-15T22:33:22.751Z,97.00
2022-11-15T22:35:49.774Z,96.80
2022-11-15T22:38:16.563Z,97.00
2022-11-15T22:40:44.110Z,97.30
2022-11-15T22:43:13.164Z,97.30
2022-11-15T22:45:50.317Z,97.40
2022-11-15T22:48:17.907Z,97.30
2022-11-15T22:50:45.285Z,96.80
2022-11-15T22:53:12.042Z,97.20
2022-11-15T22:55:40.039Z,97.60
2022-11-15T22:58:08.529Z,97.70
2022-11-15T23:00:35.968Z,97.30
2022-11-15T23:03:03.349Z,97.80
2022-11-15T23:05:30.042Z,97.90
2022-11-15T23:07:56.707Z,97.90
2022-11-15T23:10:42.000Z,97.60
2022-11-15T23:13:17.798Z,97.90
2022-11-15T23:16:06.670Z,98.10
2022-11-15T23:18:38.870Z,97.80
2022-11-15T23:21:13.506Z,98.30
2022-11-15T23:23:40.722Z,98.30
2022-11-15T23:26:07.825Z,98.30
2022-11-15T23:28:35.348Z,98.30
2022-11-15T23:31:25.737Z,98.30
2022-11-15T23:33:58.627Z,98.30
2022-11-15T23:36:27.239Z,98.30
2022-11-15T23:38:53.988Z,98.30
2022-11-15T23:41:22.030Z,98.30
2022-11-15T23:43:48.935Z,98.30
2022-11-15T23:46:15.893Z,98.30
2022-11-15T23:48:42.741Z,98.30
2022-11-15T23:51:09.882Z,98.30
2022-11-15T23:53:36.779Z,98.30
2022-11-15T23:56:07.450Z,98.30
2022-11-15T23:58:34.673Z,98.30
